sensor_id;sensor_type;location;lat;lon;timestamp;P1;durP1;ratioP1;P2;durP2;ratioP2
2293;SDS011;1155;42.644;23.264;2023-05-07T00:02:19;5.43;;;4.40;;
2293;SDS011;1155;42.644;23.264;2023-05-07T00:04:47;6.20;;;5.20;;
2293;SDS011;1155;42.644;23.264;2023-05-07T00:07:15;5.63;;;4.50;;
2293;SDS011;1155;42.644;23.264;2023-05-07T00:09:42;9.10;;;6.13;;
2293;SDS011;1155;42.644;23.264;2023-05-07T00:12:08;17.53;;;7.27;;
2293;SDS011;1155;42.644;23.264;2023-05-07T00:14:35;6.33;;;5.57;;
2293;SDS011;1155;42.644;23.264;2023-05-07T00:17:02;4.50;;;4.03;;
2293;SDS011;1155;42.644;23.264;2023-05-07T00:19:31;7.13;;;4.17;;
2293;SDS011;1155;42.644;23.264;2023-05-07T00:21:57;5.67;;;4.27;;
2293;SDS011;1155;42.644;23.264;2023-05-07T00:24:24;4.03;;;3.63;;
2293;SDS011;1155;42.644;23.264;2023-05-07T00:26:51;6.30;;;5.70;;
2293;SDS011;1155;42.644;23.264;2023-05-07T00:29:18;5.93;;;5.33;;
2293;SDS011;1155;42.644;23.264;2023-05-07T00:31:45;7.27;;;6.27;;
2293;SDS011;1155;42.644;23.264;2023-05-07T00:34:12;6.73;;;5.20;;
2293;SDS011;1155;42.644;23.264;2023-05-07T00:36:40;8.23;;;5.00;;
2293;SDS011;1155;42.644;23.264;2023-05-07T00:39:07;7.00;;;4.77;;
2293;SDS011;1155;42.644;23.264;2023-05-07T00:41:34;5.40;;;4.90;;
2293;SDS011;1155;42.644;23.264;2023-05-07T00:44:03;5.20;;;4.37;;
2293;SDS011;1155;42.644;23.264;2023-05-07T00:46:30;4.53;;;4.13;;
2293;SDS011;1155;42.644;23.264;2023-05-07T00:49:00;4.47;;;3.60;;
2293;SDS011;1155;42.644;23.264;2023-05-07T00:51:27;7.87;;;4.20;;
2293;SDS011;1155;42.644;23.264;2023-05-07T00:53:59;4.07;;;3.67;;
2293;SDS011;1155;42.644;23.264;2023-05-07T00:56:31;4.47;;;3.93;;
2293;SDS011;1155;42.644;23.264;2023-05-07T00:59:00;4.33;;;3.93;;
2293;SDS011;1155;42.644;23.264;2023-05-07T01:01:28;5.20;;;4.00;;
2293;SDS011;1155;42.644;23.264;2023-05-07T01:03:57;4.53;;;4.13;;
2293;SDS011;1155;42.644;23.264;2023-05-07T01:06:24;6.67;;;4.10;;
2293;SDS011;1155;42.644;23.264;2023-05-07T01:08:52;4.07;;;3.73;;
2293;SDS011;1155;42.644;23.264;2023-05-07T01:11:23;5.87;;;4.30;;
2293;SDS011;1155;42.644;23.264;2023-05-07T01:13:50;5.47;;;4.80;;
2293;SDS011;1155;42.644;23.264;2023-05-07T01:16:17;6.20;;;5.20;;
2293;SDS011;1155;42.644;23.264;2023-05-07T01:18:45;6.20;;;5.47;;
2293;SDS011;1155;42.644;23.264;2023-05-07T01:21:13;9.20;;;5.03;;
2293;SDS011;1155;42.644;23.264;2023-05-07T01:23:44;9.30;;;5.00;;
2293;SDS011;1155;42.644;23.264;2023-05-07T01:26:12;10.63;;;3.93;;
2293;SDS011;1155;42.644;23.264;2023-05-07T01:28:39;9.47;;;4.83;;
2293;SDS011;1155;42.644;23.264;2023-05-07T01:31:06;5.70;;;4.77;;
2293;SDS011;1155;42.644;23.264;2023-05-07T01:33:34;4.97;;;4.50;;
2293;SDS011;1155;42.644;23.264;2023-05-07T01:36:06;6.07;;;4.70;;
2293;SDS011;1155;42.644;23.264;2023-05-07T01:38:36;5.13;;;4.63;;
2293;SDS011;1155;42.644;23.264;2023-05-07T01:41:05;5.83;;;5.23;;
2293;SDS011;1155;42.644;23.264;2023-05-07T01:43:33;5.13;;;4.60;;
2293;SDS011;1155;42.644;23.264;2023-05-07T01:46:00;5.60;;;4.90;;
2293;SDS011;1155;42.644;23.264;2023-05-07T01:48:34;5.33;;;4.83;;
2293;SDS011;1155;42.644;23.264;2023-05-07T01:51:03;8.90;;;4.70;;
2293;SDS011;1155;42.644;23.264;2023-05-07T01:53:35;4.33;;;3.80;;
2293;SDS011;1155;42.644;23.264;2023-05-07T01:56:02;4.20;;;3.87;;
2293;SDS011;1155;42.644;23.264;2023-05-07T01:58:31;5.33;;;4.83;;
2293;SDS011;1155;42.644;23.264;2023-05-07T02:00:58;4.10;;;3.70;;
2293;SDS011;1155;42.644;23.264;2023-05-07T02:03:25;8.33;;;4.30;;
2293;SDS011;1155;42.644;23.264;2023-05-07T02:05:52;4.77;;;4.37;;
2293;SDS011;1155;42.644;23.264;2023-05-07T02:08:18;8.83;;;4.73;;
2293;SDS011;1155;42.644;23.264;2023-05-07T02:10:45;9.53;;;6.00;;
2293;SDS011;1155;42.644;23.264;2023-05-07T02:13:12;5.80;;;4.93;;
2293;SDS011;1155;42.644;23.264;2023-05-07T02:15:40;4.50;;;4.10;;
2293;SDS011;1155;42.644;23.264;2023-05-07T02:18:10;4.90;;;4.40;;
2293;SDS011;1155;42.644;23.264;2023-05-07T02:20:36;5.90;;;5.40;;
2293;SDS011;1155;42.644;23.264;2023-05-07T02:23:03;4.70;;;4.23;;
2293;SDS011;1155;42.644;23.264;2023-05-07T02:25:30;5.00;;;4.50;;
2293;SDS011;1155;42.644;23.264;2023-05-07T02:27:57;5.20;;;4.70;;
2293;SDS011;1155;42.644;23.264;2023-05-07T02:30:24;8.37;;;4.47;;
2293;SDS011;1155;42.644;23.264;2023-05-07T02:32:55;5.80;;;4.70;;
2293;SDS011;1155;42.644;23.264;2023-05-07T02:35:22;4.60;;;4.20;;
2293;SDS011;1155;42.644;23.264;2023-05-07T02:37:50;5.10;;;4.60;;
2293;SDS011;1155;42.644;23.264;2023-05-07T02:40:17;4.80;;;4.40;;
2293;SDS011;1155;42.644;23.264;2023-05-07T02:42:43;5.10;;;4.23;;
2293;SDS011;1155;42.644;23.264;2023-05-07T02:45:13;5.30;;;4.80;;
2293;SDS011;1155;42.644;23.264;2023-05-07T02:47:40;5.40;;;4.57;;
2293;SDS011;1155;42.644;23.264;2023-05-07T02:50:09;9.97;;;6.37;;
2293;SDS011;1155;42.644;23.264;2023-05-07T02:52:36;5.03;;;4.57;;
2293;SDS011;1155;42.644;23.264;2023-05-07T02:55:06;5.23;;;4.70;;
2293;SDS011;1155;42.644;23.264;2023-05-07T02:57:33;6.00;;;5.50;;
2293;SDS011;1155;42.644;23.264;2023-05-07T03:00:06;5.53;;;4.87;;
2293;SDS011;1155;42.644;23.264;2023-05-07T03:02:36;7.50;;;6.07;;
2293;SDS011;1155;42.644;23.264;2023-05-07T03:05:04;12.60;;;6.40;;
2293;SDS011;1155;42.644;23.264;2023-05-07T03:07:33;9.90;;;5.30;;
2293;SDS011;1155;42.644;23.264;2023-05-07T03:10:01;6.50;;;5.63;;
2293;SDS011;1155;42.644;23.264;2023-05-07T03:12:28;9.10;;;5.63;;
2293;SDS011;1155;42.644;23.264;2023-05-07T03:14:57;7.90;;;5.80;;
2293;SDS011;1155;42.644;23.264;2023-05-07T03:17:24;6.80;;;6.20;;
2293;SDS011;1155;42.644;23.264;2023-05-07T03:19:53;6.93;;;6.30;;
2293;SDS011;1155;42.644;23.264;2023-05-07T03:22:20;7.10;;;6.37;;
2293;SDS011;1155;42.644;23.264;2023-05-07T03:24:48;8.70;;;6.60;;
2293;SDS011;1155;42.644;23.264;2023-05-07T03:27:15;7.00;;;6.30;;
2293;SDS011;1155;42.644;23.264;2023-05-07T03:29:42;6.17;;;5.57;;
2293;SDS011;1155;42.644;23.264;2023-05-07T03:32:09;9.90;;;7.23;;
2293;SDS011;1155;42.644;23.264;2023-05-07T03:34:37;10.20;;;7.00;;
2293;SDS011;1155;42.644;23.264;2023-05-07T03:37:04;7.07;;;5.60;;
2293;SDS011;1155;42.644;23.264;2023-05-07T03:39:34;8.33;;;6.73;;
2293;SDS011;1155;42.644;23.264;2023-05-07T03:42:02;6.63;;;5.70;;
2293;SDS011;1155;42.644;23.264;2023-05-07T03:44:33;6.20;;;5.60;;
2293;SDS011;1155;42.644;23.264;2023-05-07T03:47:01;9.50;;;8.60;;
2293;SDS011;1155;42.644;23.264;2023-05-07T03:49:31;12.30;;;8.87;;
2293;SDS011;1155;42.644;23.264;2023-05-07T03:52:00;11.17;;;9.97;;
2293;SDS011;1155;42.644;23.264;2023-05-07T03:54:27;8.47;;;7.60;;
2293;SDS011;1155;42.644;23.264;2023-05-07T03:56:54;10.50;;;8.70;;
2293;SDS011;1155;42.644;23.264;2023-05-07T03:59:23;12.77;;;11.17;;
2293;SDS011;1155;42.644;23.264;2023-05-07T04:01:52;13.03;;;9.60;;
2293;SDS011;1155;42.644;23.264;2023-05-07T04:04:22;10.63;;;9.53;;
2293;SDS011;1155;42.644;23.264;2023-05-07T04:06:48;9.83;;;8.83;;
2293;SDS011;1155;42.644;23.264;2023-05-07T04:09:18;10.70;;;9.17;;
2293;SDS011;1155;42.644;23.264;2023-05-07T04:11:48;11.80;;;10.40;;
2293;SDS011;1155;42.644;23.264;2023-05-07T04:14:15;10.33;;;9.33;;
2293;SDS011;1155;42.644;23.264;2023-05-07T04:16:43;13.33;;;11.30;;
2293;SDS011;1155;42.644;23.264;2023-05-07T04:19:12;12.77;;;10.10;;
2293;SDS011;1155;42.644;23.264;2023-05-07T04:21:39;11.50;;;10.40;;
2293;SDS011;1155;42.644;23.264;2023-05-07T04:24:09;14.50;;;12.00;;
2293;SDS011;1155;42.644;23.264;2023-05-07T04:26:40;14.90;;;12.30;;
2293;SDS011;1155;42.644;23.264;2023-05-07T04:29:07;15.40;;;11.47;;
2293;SDS011;1155;42.644;23.264;2023-05-07T04:31:33;12.73;;;10.97;;
2293;SDS011;1155;42.644;23.264;2023-05-07T04:34:04;13.10;;;11.70;;
2293;SDS011;1155;42.644;23.264;2023-05-07T04:36:32;11.60;;;9.67;;
2293;SDS011;1155;42.644;23.264;2023-05-07T04:39:02;14.60;;;10.73;;
2293;SDS011;1155;42.644;23.264;2023-05-07T04:41:29;14.70;;;11.53;;
2293;SDS011;1155;42.644;23.264;2023-05-07T04:43:56;11.80;;;10.57;;
2293;SDS011;1155;42.644;23.264;2023-05-07T04:46:23;11.53;;;10.40;;
2293;SDS011;1155;42.644;23.264;2023-05-07T04:48:50;13.40;;;10.90;;
2293;SDS011;1155;42.644;23.264;2023-05-07T04:51:19;14.23;;;9.57;;
2293;SDS011;1155;42.644;23.264;2023-05-07T04:53:46;10.60;;;9.50;;
2293;SDS011;1155;42.644;23.264;2023-05-07T04:56:14;9.70;;;8.70;;
2293;SDS011;1155;42.644;23.264;2023-05-07T04:58:41;12.30;;;11.10;;
2293;SDS011;1155;42.644;23.264;2023-05-07T05:01:08;14.97;;;9.47;;
2293;SDS011;1155;42.644;23.264;2023-05-07T05:03:35;11.50;;;10.30;;
2293;SDS011;1155;42.644;23.264;2023-05-07T05:06:04;12.80;;;9.03;;
2293;SDS011;1155;42.644;23.264;2023-05-07T05:08:32;11.23;;;10.03;;
2293;SDS011;1155;42.644;23.264;2023-05-07T05:11:00;13.40;;;10.23;;
2293;SDS011;1155;42.644;23.264;2023-05-07T05:13:27;14.03;;;9.60;;
2293;SDS011;1155;42.644;23.264;2023-05-07T05:15:54;10.80;;;9.70;;
2293;SDS011;1155;42.644;23.264;2023-05-07T05:18:21;12.97;;;10.13;;
2293;SDS011;1155;42.644;23.264;2023-05-07T05:20:47;10.53;;;9.43;;
2293;SDS011;1155;42.644;23.264;2023-05-07T05:23:14;11.30;;;9.83;;
2293;SDS011;1155;42.644;23.264;2023-05-07T05:25:43;16.33;;;10.20;;
2293;SDS011;1155;42.644;23.264;2023-05-07T05:28:13;10.90;;;9.20;;
2293;SDS011;1155;42.644;23.264;2023-05-07T05:30:40;13.33;;;9.27;;
2293;SDS011;1155;42.644;23.264;2023-05-07T05:33:06;12.00;;;9.57;;
2293;SDS011;1155;42.644;23.264;2023-05-07T05:35:33;9.70;;;8.60;;
2293;SDS011;1155;42.644;23.264;2023-05-07T05:38:00;13.83;;;10.37;;
2293;SDS011;1155;42.644;23.264;2023-05-07T05:40:27;9.70;;;8.70;;
2293;SDS011;1155;42.644;23.264;2023-05-07T05:42:56;15.20;;;10.77;;
2293;SDS011;1155;42.644;23.264;2023-05-07T05:45:22;14.80;;;11.10;;
2293;SDS011;1155;42.644;23.264;2023-05-07T05:47:52;10.03;;;8.63;;
2293;SDS011;1155;42.644;23.264;2023-05-07T05:50:25;10.50;;;9.43;;
2293;SDS011;1155;42.644;23.264;2023-05-07T05:52:51;14.13;;;10.00;;
2293;SDS011;1155;42.644;23.264;2023-05-07T05:55:22;10.10;;;9.00;;
2293;SDS011;1155;42.644;23.264;2023-05-07T05:57:52;11.37;;;10.17;;
2293;SDS011;1155;42.644;23.264;2023-05-07T06:00:21;12.40;;;9.93;;
2293;SDS011;1155;42.644;23.264;2023-05-07T06:02:48;14.50;;;10.13;;
2293;SDS011;1155;42.644;23.264;2023-05-07T06:05:15;10.57;;;8.70;;
2293;SDS011;1155;42.644;23.264;2023-05-07T06:07:42;12.07;;;9.70;;
2293;SDS011;1155;42.644;23.264;2023-05-07T06:10:09;14.07;;;8.60;;
2293;SDS011;1155;42.644;23.264;2023-05-07T06:12:36;13.93;;;9.70;;
2293;SDS011;1155;42.644;23.264;2023-05-07T06:15:03;9.30;;;8.40;;
2293;SDS011;1155;42.644;23.264;2023-05-07T06:17:32;11.73;;;9.43;;
2293;SDS011;1155;42.644;23.264;2023-05-07T06:19:59;10.13;;;9.13;;
2293;SDS011;1155;42.644;23.264;2023-05-07T06:22:28;10.33;;;9.00;;
2293;SDS011;1155;42.644;23.264;2023-05-07T06:24:55;12.83;;;8.60;;
2293;SDS011;1155;42.644;23.264;2023-05-07T06:27:22;10.30;;;9.20;;
2293;SDS011;1155;42.644;23.264;2023-05-07T06:29:49;14.40;;;9.90;;
2293;SDS011;1155;42.644;23.264;2023-05-07T06:32:16;11.90;;;9.23;;
2293;SDS011;1155;42.644;23.264;2023-05-07T06:34:44;10.27;;;9.23;;
2293;SDS011;1155;42.644;23.264;2023-05-07T06:37:11;9.57;;;8.60;;
2293;SDS011;1155;42.644;23.264;2023-05-07T06:39:38;10.17;;;8.77;;
2293;SDS011;1155;42.644;23.264;2023-05-07T06:42:06;10.90;;;9.50;;
2293;SDS011;1155;42.644;23.264;2023-05-07T06:44:33;10.10;;;9.13;;
2293;SDS011;1155;42.644;23.264;2023-05-07T06:47:00;12.70;;;7.77;;
2293;SDS011;1155;42.644;23.264;2023-05-07T06:49:27;9.43;;;8.23;;
2293;SDS011;1155;42.644;23.264;2023-05-07T06:51:55;8.37;;;7.57;;
2293;SDS011;1155;42.644;23.264;2023-05-07T06:54:22;9.63;;;7.80;;
2293;SDS011;1155;42.644;23.264;2023-05-07T06:56:49;8.30;;;7.40;;
2293;SDS011;1155;42.644;23.264;2023-05-07T06:59:16;9.03;;;8.17;;
2293;SDS011;1155;42.644;23.264;2023-05-07T07:01:42;10.97;;;8.20;;
2293;SDS011;1155;42.644;23.264;2023-05-07T07:04:09;8.93;;;8.13;;
2293;SDS011;1155;42.644;23.264;2023-05-07T07:06:38;9.67;;;8.00;;
2293;SDS011;1155;42.644;23.264;2023-05-07T07:09:07;9.83;;;8.37;;
2293;SDS011;1155;42.644;23.264;2023-05-07T07:11:33;11.60;;;6.97;;
2293;SDS011;1155;42.644;23.264;2023-05-07T07:14:01;9.23;;;7.70;;
2293;SDS011;1155;42.644;23.264;2023-05-07T07:16:27;12.40;;;7.93;;
2293;SDS011;1155;42.644;23.264;2023-05-07T07:18:54;9.80;;;7.17;;
2293;SDS011;1155;42.644;23.264;2023-05-07T07:21:21;7.80;;;7.07;;
2293;SDS011;1155;42.644;23.264;2023-05-07T07:23:48;10.20;;;8.97;;
2293;SDS011;1155;42.644;23.264;2023-05-07T07:26:16;10.73;;;9.10;;
2293;SDS011;1155;42.644;23.264;2023-05-07T07:28:44;8.40;;;7.57;;
2293;SDS011;1155;42.644;23.264;2023-05-07T07:31:12;9.77;;;7.37;;
2293;SDS011;1155;42.644;23.264;2023-05-07T07:33:40;10.23;;;7.67;;
2293;SDS011;1155;42.644;23.264;2023-05-07T07:36:09;11.77;;;7.10;;
2293;SDS011;1155;42.644;23.264;2023-05-07T07:38:38;7.67;;;6.47;;
2293;SDS011;1155;42.644;23.264;2023-05-07T07:41:05;7.10;;;6.47;;
2293;SDS011;1155;42.644;23.264;2023-05-07T07:43:36;11.27;;;6.47;;
2293;SDS011;1155;42.644;23.264;2023-05-07T07:46:05;8.93;;;7.80;;
2293;SDS011;1155;42.644;23.264;2023-05-07T07:48:33;9.80;;;6.53;;
2293;SDS011;1155;42.644;23.264;2023-05-07T07:51:01;7.87;;;6.80;;
2293;SDS011;1155;42.644;23.264;2023-05-07T07:53:28;8.27;;;6.77;;
2293;SDS011;1155;42.644;23.264;2023-05-07T07:55:55;7.63;;;6.63;;
2293;SDS011;1155;42.644;23.264;2023-05-07T07:58:22;7.67;;;6.20;;
2293;SDS011;1155;42.644;23.264;2023-05-07T08:00:51;7.93;;;5.73;;
2293;SDS011;1155;42.644;23.264;2023-05-07T08:03:19;7.80;;;6.77;;
2293;SDS011;1155;42.644;23.264;2023-05-07T08:05:46;7.90;;;7.10;;
2293;SDS011;1155;42.644;23.264;2023-05-07T08:08:16;7.73;;;6.87;;
2293;SDS011;1155;42.644;23.264;2023-05-07T08:10:43;7.63;;;6.83;;
2293;SDS011;1155;42.644;23.264;2023-05-07T08:13:10;7.10;;;6.10;;
2293;SDS011;1155;42.644;23.264;2023-05-07T08:15:36;6.90;;;6.20;;
2293;SDS011;1155;42.644;23.264;2023-05-07T08:18:05;7.73;;;5.87;;
2293;SDS011;1155;42.644;23.264;2023-05-07T08:20:37;6.13;;;5.60;;
2293;SDS011;1155;42.644;23.264;2023-05-07T08:23:04;6.20;;;5.70;;
2293;SDS011;1155;42.644;23.264;2023-05-07T08:25:34;6.60;;;5.93;;
2293;SDS011;1155;42.644;23.264;2023-05-07T08:28:02;11.57;;;5.80;;
2293;SDS011;1155;42.644;23.264;2023-05-07T08:30:29;6.00;;;5.50;;
2293;SDS011;1155;42.644;23.264;2023-05-07T08:32:56;5.87;;;5.27;;
2293;SDS011;1155;42.644;23.264;2023-05-07T08:35:24;6.47;;;4.67;;
2293;SDS011;1155;42.644;23.264;2023-05-07T08:37:52;5.40;;;4.90;;
2293;SDS011;1155;42.644;23.264;2023-05-07T08:40:18;5.97;;;5.40;;
2293;SDS011;1155;42.644;23.264;2023-05-07T08:42:48;5.73;;;5.13;;
2293;SDS011;1155;42.644;23.264;2023-05-07T08:45:19;8.90;;;5.83;;
2293;SDS011;1155;42.644;23.264;2023-05-07T08:47:47;7.87;;;5.50;;
2293;SDS011;1155;42.644;23.264;2023-05-07T08:50:21;7.43;;;6.03;;
2293;SDS011;1155;42.644;23.264;2023-05-07T08:52:52;6.83;;;5.63;;
2293;SDS011;1155;42.644;23.264;2023-05-07T08:55:19;6.60;;;6.00;;
2293;SDS011;1155;42.644;23.264;2023-05-07T08:57:47;6.77;;;6.10;;
2293;SDS011;1155;42.644;23.264;2023-05-07T09:00:14;6.50;;;5.90;;
2293;SDS011;1155;42.644;23.264;2023-05-07T09:02:41;7.80;;;6.43;;
2293;SDS011;1155;42.644;23.264;2023-05-07T09:05:08;7.07;;;5.60;;
2293;SDS011;1155;42.644;23.264;2023-05-07T09:07:36;7.30;;;6.60;;
2293;SDS011;1155;42.644;23.264;2023-05-07T09:10:04;6.33;;;5.70;;
2293;SDS011;1155;42.644;23.264;2023-05-07T09:12:31;7.10;;;6.20;;
2293;SDS011;1155;42.644;23.264;2023-05-07T09:15:00;8.20;;;6.50;;
2293;SDS011;1155;42.644;23.264;2023-05-07T09:17:29;16.30;;;5.70;;
2293;SDS011;1155;42.644;23.264;2023-05-07T09:19:56;7.70;;;6.90;;
2293;SDS011;1155;42.644;23.264;2023-05-07T09:22:23;8.47;;;6.03;;
2293;SDS011;1155;42.644;23.264;2023-05-07T09:24:51;6.00;;;5.33;;
2293;SDS011;1155;42.644;23.264;2023-05-07T09:27:20;6.07;;;5.53;;
2293;SDS011;1155;42.644;23.264;2023-05-07T09:29:46;9.13;;;6.47;;
2293;SDS011;1155;42.644;23.264;2023-05-07T09:32:14;7.10;;;6.10;;
2293;SDS011;1155;42.644;23.264;2023-05-07T09:34:41;6.37;;;5.77;;
2293;SDS011;1155;42.644;23.264;2023-05-07T09:37:08;8.27;;;5.00;;
2293;SDS011;1155;42.644;23.264;2023-05-07T09:39:38;8.13;;;6.70;;
2293;SDS011;1155;42.644;23.264;2023-05-07T09:42:11;5.73;;;5.23;;
2293;SDS011;1155;42.644;23.264;2023-05-07T09:44:40;6.87;;;5.43;;
2293;SDS011;1155;42.644;23.264;2023-05-07T09:47:08;9.23;;;6.57;;
2293;SDS011;1155;42.644;23.264;2023-05-07T09:49:39;6.37;;;5.77;;
2293;SDS011;1155;42.644;23.264;2023-05-07T09:52:15;7.90;;;5.93;;
2293;SDS011;1155;42.644;23.264;2023-05-07T09:54:43;8.37;;;5.53;;
2293;SDS011;1155;42.644;23.264;2023-05-07T09:57:12;6.37;;;5.50;;
2293;SDS011;1155;42.644;23.264;2023-05-07T09:59:41;5.83;;;5.20;;
2293;SDS011;1155;42.644;23.264;2023-05-07T10:02:09;5.83;;;5.33;;
2293;SDS011;1155;42.644;23.264;2023-05-07T10:04:37;6.37;;;5.47;;
2293;SDS011;1155;42.644;23.264;2023-05-07T10:07:14;7.20;;;5.43;;
2293;SDS011;1155;42.644;23.264;2023-05-07T10:09:43;9.90;;;6.00;;
2293;SDS011;1155;42.644;23.264;2023-05-07T10:12:12;7.40;;;5.70;;
2293;SDS011;1155;42.644;23.264;2023-05-07T10:14:43;6.27;;;4.40;;
2293;SDS011;1155;42.644;23.264;2023-05-07T10:17:11;4.87;;;4.47;;
2293;SDS011;1155;42.644;23.264;2023-05-07T10:19:39;4.80;;;4.47;;
2293;SDS011;1155;42.644;23.264;2023-05-07T10:22:12;6.30;;;5.70;;
2293;SDS011;1155;42.644;23.264;2023-05-07T10:24:40;5.50;;;4.80;;
2293;SDS011;1155;42.644;23.264;2023-05-07T10:27:12;6.00;;;5.40;;
2293;SDS011;1155;42.644;23.264;2023-05-07T10:29:44;6.70;;;4.80;;
2293;SDS011;1155;42.644;23.264;2023-05-07T10:32:26;6.63;;;3.87;;
2293;SDS011;1155;42.644;23.264;2023-05-07T10:35:03;6.40;;;4.40;;
2293;SDS011;1155;42.644;23.264;2023-05-07T10:37:34;7.00;;;4.33;;
2293;SDS011;1155;42.644;23.264;2023-05-07T10:40:02;4.50;;;4.07;;
2293;SDS011;1155;42.644;23.264;2023-05-07T10:42:30;5.23;;;4.47;;
2293;SDS011;1155;42.644;23.264;2023-05-07T10:44:57;3.80;;;3.50;;
2293;SDS011;1155;42.644;23.264;2023-05-07T10:47:37;7.87;;;3.77;;
2293;SDS011;1155;42.644;23.264;2023-05-07T10:50:45;5.00;;;4.53;;
2293;SDS011;1155;42.644;23.264;2023-05-07T10:53:21;4.67;;;4.23;;
2293;SDS011;1155;42.644;23.264;2023-05-07T10:58:56;5.23;;;4.30;;
2293;SDS011;1155;42.644;23.264;2023-05-07T11:02:07;4.70;;;4.30;;
2293;SDS011;1155;42.644;23.264;2023-05-07T11:04:36;5.60;;;4.67;;
2293;SDS011;1155;42.644;23.264;2023-05-07T11:10:01;8.20;;;7.40;;
2293;SDS011;1155;42.644;23.264;2023-05-07T11:12:52;4.53;;;4.13;;
2293;SDS011;1155;42.644;23.264;2023-05-07T11:18:12;5.37;;;4.47;;
2293;SDS011;1155;42.644;23.264;2023-05-07T11:20:47;4.90;;;4.50;;
2293;SDS011;1155;42.644;23.264;2023-05-07T11:26:25;5.50;;;4.97;;
2293;SDS011;1155;42.644;23.264;2023-05-07T11:28:53;7.47;;;4.60;;
2293;SDS011;1155;42.644;23.264;2023-05-07T11:31:23;7.27;;;4.70;;
2293;SDS011;1155;42.644;23.264;2023-05-07T11:33:52;5.60;;;4.30;;
2293;SDS011;1155;42.644;23.264;2023-05-07T11:36:20;5.17;;;4.67;;
2293;SDS011;1155;42.644;23.264;2023-05-07T11:38:48;8.27;;;5.30;;
2293;SDS011;1155;42.644;23.264;2023-05-07T11:41:15;5.50;;;4.53;;
2293;SDS011;1155;42.644;23.264;2023-05-07T11:43:56;3.90;;;3.60;;
2293;SDS011;1155;42.644;23.264;2023-05-07T11:46:26;6.10;;;4.70;;
2293;SDS011;1155;42.644;23.264;2023-05-07T11:48:53;4.27;;;3.97;;
2293;SDS011;1155;42.644;23.264;2023-05-07T11:51:21;6.00;;;3.90;;
2293;SDS011;1155;42.644;23.264;2023-05-07T11:53:51;4.70;;;4.27;;
2293;SDS011;1155;42.644;23.264;2023-05-07T11:56:18;4.30;;;3.87;;
2293;SDS011;1155;42.644;23.264;2023-05-07T11:58:46;4.70;;;4.30;;
2293;SDS011;1155;42.644;23.264;2023-05-07T12:01:17;8.03;;;3.77;;
2293;SDS011;1155;42.644;23.264;2023-05-07T12:03:45;4.80;;;4.30;;
2293;SDS011;1155;42.644;23.264;2023-05-07T12:06:13;5.53;;;5.10;;
2293;SDS011;1155;42.644;23.264;2023-05-07T12:08:41;5.53;;;4.97;;
2293;SDS011;1155;42.644;23.264;2023-05-07T12:11:12;4.57;;;4.17;;
2293;SDS011;1155;42.644;23.264;2023-05-07T12:13:41;6.57;;;4.40;;
2293;SDS011;1155;42.644;23.264;2023-05-07T12:16:08;5.27;;;4.77;;
2293;SDS011;1155;42.644;23.264;2023-05-07T12:18:38;6.27;;;4.03;;
2293;SDS011;1155;42.644;23.264;2023-05-07T12:21:07;4.80;;;3.20;;
2293;SDS011;1155;42.644;23.264;2023-05-07T12:23:36;5.20;;;3.60;;
2293;SDS011;1155;42.644;23.264;2023-05-07T12:26:03;4.43;;;4.00;;
2293;SDS011;1155;42.644;23.264;2023-05-07T12:28:31;3.50;;;3.30;;
2293;SDS011;1155;42.644;23.264;2023-05-07T12:31:02;3.53;;;3.20;;
2293;SDS011;1155;42.644;23.264;2023-05-07T12:33:30;3.93;;;3.57;;
2293;SDS011;1155;42.644;23.264;2023-05-07T12:35:58;4.27;;;3.80;;
2293;SDS011;1155;42.644;23.264;2023-05-07T12:38:34;4.23;;;3.77;;
2293;SDS011;1155;42.644;23.264;2023-05-07T12:41:02;6.60;;;3.60;;
2293;SDS011;1155;42.644;23.264;2023-05-07T12:43:32;4.20;;;3.80;;
2293;SDS011;1155;42.644;23.264;2023-05-07T12:46:00;4.67;;;3.60;;
2293;SDS011;1155;42.644;23.264;2023-05-07T12:48:29;4.30;;;3.90;;
2293;SDS011;1155;42.644;23.264;2023-05-07T12:50:59;5.07;;;3.60;;
2293;SDS011;1155;42.644;23.264;2023-05-07T12:53:28;3.80;;;3.33;;
2293;SDS011;1155;42.644;23.264;2023-05-07T12:55:58;5.00;;;3.50;;
2293;SDS011;1155;42.644;23.264;2023-05-07T12:58:26;5.60;;;3.87;;
2293;SDS011;1155;42.644;23.264;2023-05-07T13:00:54;3.43;;;3.20;;
2293;SDS011;1155;42.644;23.264;2023-05-07T13:03:24;4.30;;;3.70;;
2293;SDS011;1155;42.644;23.264;2023-05-07T13:05:57;5.70;;;4.10;;
2293;SDS011;1155;42.644;23.264;2023-05-07T13:08:33;3.27;;;3.00;;
2293;SDS011;1155;42.644;23.264;2023-05-07T13:11:08;5.90;;;3.90;;
2293;SDS011;1155;42.644;23.264;2023-05-07T13:13:36;3.70;;;3.33;;
2293;SDS011;1155;42.644;23.264;2023-05-07T13:16:05;3.77;;;3.07;;
2293;SDS011;1155;42.644;23.264;2023-05-07T13:18:34;3.63;;;3.40;;
2293;SDS011;1155;42.644;23.264;2023-05-07T13:21:02;4.10;;;3.70;;
2293;SDS011;1155;42.644;23.264;2023-05-07T13:23:30;3.60;;;3.30;;
2293;SDS011;1155;42.644;23.264;2023-05-07T13:25:56;4.53;;;3.23;;
2293;SDS011;1155;42.644;23.264;2023-05-07T13:28:25;3.90;;;3.57;;
2293;SDS011;1155;42.644;23.264;2023-05-07T13:30:52;3.80;;;3.50;;
2293;SDS011;1155;42.644;23.264;2023-05-07T13:33:19;5.37;;;3.53;;
2293;SDS011;1155;42.644;23.264;2023-05-07T13:35:49;4.07;;;3.67;;
2293;SDS011;1155;42.644;23.264;2023-05-07T13:38:19;3.30;;;3.00;;
2293;SDS011;1155;42.644;23.264;2023-05-07T13:40:46;4.60;;;3.77;;
2293;SDS011;1155;42.644;23.264;2023-05-07T13:43:12;6.57;;;3.83;;
2293;SDS011;1155;42.644;23.264;2023-05-07T13:45:41;5.20;;;3.50;;
2293;SDS011;1155;42.644;23.264;2023-05-07T13:48:12;4.30;;;3.00;;
2293;SDS011;1155;42.644;23.264;2023-05-07T13:50:41;4.30;;;3.40;;
2293;SDS011;1155;42.644;23.264;2023-05-07T13:53:07;4.10;;;3.00;;
2293;SDS011;1155;42.644;23.264;2023-05-07T13:55:34;4.07;;;3.10;;
2293;SDS011;1155;42.644;23.264;2023-05-07T13:58:01;3.80;;;3.00;;
2293;SDS011;1155;42.644;23.264;2023-05-07T14:00:29;7.03;;;4.70;;
2293;SDS011;1155;42.644;23.264;2023-05-07T14:02:57;4.37;;;3.97;;
2293;SDS011;1155;42.644;23.264;2023-05-07T14:05:24;5.23;;;3.60;;
2293;SDS011;1155;42.644;23.264;2023-05-07T14:07:53;5.63;;;3.20;;
2293;SDS011;1155;42.644;23.264;2023-05-07T14:10:20;4.30;;;3.30;;
2293;SDS011;1155;42.644;23.264;2023-05-07T14:12:47;3.30;;;3.00;;
2293;SDS011;1155;42.644;23.264;2023-05-07T14:15:14;3.27;;;2.93;;
2293;SDS011;1155;42.644;23.264;2023-05-07T14:17:41;3.47;;;3.17;;
2293;SDS011;1155;42.644;23.264;2023-05-07T14:20:10;7.60;;;3.90;;
2293;SDS011;1155;42.644;23.264;2023-05-07T14:22:38;4.50;;;4.20;;
2293;SDS011;1155;42.644;23.264;2023-05-07T14:25:05;7.07;;;4.03;;
2293;SDS011;1155;42.644;23.264;2023-05-07T14:27:34;3.90;;;3.20;;
2293;SDS011;1155;42.644;23.264;2023-05-07T14:30:01;3.10;;;2.90;;
2293;SDS011;1155;42.644;23.264;2023-05-07T14:32:31;3.50;;;3.20;;
2293;SDS011;1155;42.644;23.264;2023-05-07T14:34:58;6.90;;;3.20;;
2293;SDS011;1155;42.644;23.264;2023-05-07T14:37:27;4.30;;;3.60;;
2293;SDS011;1155;42.644;23.264;2023-05-07T14:39:54;3.93;;;3.20;;
2293;SDS011;1155;42.644;23.264;2023-05-07T14:42:20;6.30;;;3.27;;
2293;SDS011;1155;42.644;23.264;2023-05-07T14:44:47;3.40;;;3.00;;
2293;SDS011;1155;42.644;23.264;2023-05-07T14:47:18;4.70;;;3.20;;
2293;SDS011;1155;42.644;23.264;2023-05-07T14:49:45;4.70;;;3.27;;
2293;SDS011;1155;42.644;23.264;2023-05-07T14:52:11;3.40;;;3.10;;
2293;SDS011;1155;42.644;23.264;2023-05-07T14:54:42;4.00;;;3.70;;
2293;SDS011;1155;42.644;23.264;2023-05-07T14:57:09;3.40;;;3.20;;
2293;SDS011;1155;42.644;23.264;2023-05-07T14:59:38;3.20;;;2.90;;
2293;SDS011;1155;42.644;23.264;2023-05-07T15:02:06;5.50;;;3.47;;
2293;SDS011;1155;42.644;23.264;2023-05-07T15:04:33;3.57;;;3.27;;
2293;SDS011;1155;42.644;23.264;2023-05-07T15:07:00;14.83;;;13.23;;
2293;SDS011;1155;42.644;23.264;2023-05-07T15:09:27;6.77;;;6.00;;
2293;SDS011;1155;42.644;23.264;2023-05-07T15:11:55;3.80;;;3.50;;
2293;SDS011;1155;42.644;23.264;2023-05-07T15:14:22;3.60;;;3.30;;
2293;SDS011;1155;42.644;23.264;2023-05-07T15:16:50;8.47;;;4.00;;
2293;SDS011;1155;42.644;23.264;2023-05-07T15:19:17;4.00;;;3.23;;